Time;durP1;ratioP1;P1;durP2;ratioP2;P2;SDS_P1;SDS_P2;PMS_P1;PMS_P2;Temp;Humidity;BMP_temperature;BMP_pressure;BME280_temperature;BME280_humidity;BME280_pressure;Samples;Min_cycle;Max_cycle;Signal;HPM_P1;HPM_P2
2023/08/03 00:01:24;;;;;;;2.30;0.70;;;;;;;;;;5097501;28;20020;-82
2023/08/03 00:03:49;;;;;;;1.65;0.68;;;;;;;;;;5098262;28;20077;-83
2023/08/03 00:06:15;;;;;;;1.70;0.60;;;;;;;;;;5094756;28;20016;-83
2023/08/03 00:08:40;;;;;;;7.47;0.73;;;;;;;;;;5094902;28;20024;-83
2023/08/03 00:11:05;;;;;;;2.55;0.82;;;;;;;;;;5092787;28;20052;-82
2023/08/03 00:13:31;;;;;;;2.03;0.80;;;;;;;;;;5092810;28;20062;-83
2023/08/03 00:15:56;;;;;;;1.70;0.80;;;;;;;;;;5088588;28;20025;-82
2023/08/03 00:18:21;;;;;;;2.75;0.88;;;;;;;;;;5086368;28;20088;-82
2023/08/03 00:20:48;;;;;;;3.28;1.10;;;;;;;;;;5082825;28;20035;-83
2023/08/03 00:23:13;;;;;;;1.63;1.02;;;;;;;;;;5096489;28;20025;-86
2023/08/03 00:25:38;;;;;;;3.08;1.55;;;;;;;;;;5092673;28;20067;-83
2023/08/03 00:28:04;;;;;;;2.80;1.65;;;;;;;;;;5085517;28;20476;-82
2023/08/03 00:30:29;;;;;;;3.00;1.38;;;;;;;;;;5088781;28;20031;-82
2023/08/03 00:32:55;;;;;;;3.58;1.40;;;;;;;;;;5086016;28;20467;-83
2023/08/03 00:35:20;;;;;;;3.35;1.30;;;;;;;;;;5085343;28;20024;-82
2023/08/03 00:37:45;;;;;;;4.20;1.70;;;;;;;;;;5094029;28;20191;-83
2023/08/03 00:40:11;;;;;;;5.18;1.60;;;;;;;;;;5077726;28;20391;-82
2023/08/03 00:42:37;;;;;;;3.90;1.30;;;;;;;;;;5087591;28;20028;-82
2023/08/03 00:45:03;;;;;;;3.70;1.48;;;;;;;;;;5094278;28;20024;-83
2023/08/03 00:47:29;;;;;;;5.13;1.60;;;;;;;;;;5095272;28;20024;-83
2023/08/03 00:49:54;;;;;;;5.30;1.90;;;;;;;;;;5089746;28;20035;-83
2023/08/03 00:52:20;;;;;;;4.20;1.65;;;;;;;;;;5094534;28;20404;-80
2023/08/03 00:54:45;;;;;;;4.05;1.73;;;;;;;;;;5077030;28;20495;-83
2023/08/03 00:57:11;;;;;;;4.38;1.70;;;;;;;;;;5088633;28;20024;-84
2023/08/03 00:59:36;;;;;;;3.65;1.70;;;;;;;;;;5084064;28;20012;-83
2023/08/03 01:02:02;;;;;;;5.88;1.77;;;;;;;;;;5081894;28;20033;-82
2023/08/03 01:04:27;;;;;;;4.22;1.70;;;;;;;;;;5093173;28;20436;-83
2023/08/03 01:06:52;;;;;;;6.28;1.70;;;;;;;;;;5093639;28;20089;-83
2023/08/03 01:09:18;;;;;;;6.47;1.67;;;;;;;;;;5084545;28;20085;-82
2023/08/03 01:11:44;;;;;;;3.88;1.70;;;;;;;;;;5092572;28;20024;-82
2023/08/03 01:14:10;;;;;;;7.70;1.70;;;;;;;;;;5089942;28;20027;-84
2023/08/03 01:16:36;;;;;;;4.40;1.85;;;;;;;;;;5095002;28;20016;-85
2023/08/03 01:19:02;;;;;;;6.93;1.80;;;;;;;;;;5090660;28;20023;-85
2023/08/03 01:21:31;;;;;;;5.82;1.58;;;;;;;;;;5093338;28;20073;-83
2023/08/03 01:23:57;;;;;;;6.47;1.80;;;;;;;;;;5091688;28;20028;-82
2023/08/03 01:26:23;;;;;;;8.23;1.95;;;;;;;;;;5094665;28;20016;-84
2023/08/03 01:28:49;;;;;;;5.60;1.98;;;;;;;;;;5093062;28;20035;-82
2023/08/03 01:31:15;;;;;;;4.80;1.85;;;;;;;;;;5093374;28;20020;-83
2023/08/03 01:33:40;;;;;;;8.07;2.40;;;;;;;;;;5080796;28;20104;-76
2023/08/03 01:36:06;;;;;;;7.38;2.10;;;;;;;;;;5093938;28;20023;-77
2023/08/03 01:38:31;;;;;;;8.32;2.30;;;;;;;;;;5093084;28;20031;-77
2023/08/03 01:40:59;;;;;;;7.75;2.28;;;;;;;;;;5093001;28;20467;-76
2023/08/03 01:43:24;;;;;;;7.35;2.33;;;;;;;;;;5094110;28;20020;-76
2023/08/03 01:45:50;;;;;;;7.38;2.83;;;;;;;;;;5099722;28;20023;-76
2023/08/03 01:48:15;;;;;;;7.78;2.70;;;;;;;;;;5089559;28;20021;-76
2023/08/03 01:50:41;;;;;;;6.35;2.30;;;;;;;;;;5086850;28;20028;-76
2023/08/03 01:53:06;;;;;;;6.07;2.58;;;;;;;;;;5096423;28;20032;-77
2023/08/03 01:55:31;;;;;;;6.88;2.35;;;;;;;;;;5093535;28;20024;-76
2023/08/03 01:57:57;;;;;;;8.90;2.88;;;;;;;;;;5092392;28;20455;-76
2023/08/03 02:00:24;;;;;;;7.00;2.10;;;;;;;;;;5084020;28;20058;-77
2023/08/03 02:02:51;;;;;;;7.53;2.42;;;;;;;;;;5100063;28;20471;-76
2023/08/03 02:05:16;;;;;;;7.63;3.65;;;;;;;;;;5083063;28;20012;-76
2023/08/03 02:07:44;;;;;;;9.05;2.60;;;;;;;;;;5090760;28;20040;-76
2023/08/03 02:10:11;;;;;;;7.47;2.38;;;;;;;;;;5090215;28;20027;-76
2023/08/03 02:12:37;;;;;;;4.95;2.38;;;;;;;;;;5090040;28;20020;-76
2023/08/03 02:15:04;;;;;;;5.28;2.30;;;;;;;;;;5088445;28;20085;-76
2023/08/03 02:17:29;;;;;;;8.80;2.50;;;;;;;;;;5086501;28;20043;-77
2023/08/03 02:19:55;;;;;;;6.35;2.60;;;;;;;;;;5089306;28;20111;-76
2023/08/03 02:22:21;;;;;;;7.13;2.50;;;;;;;;;;5091914;28;20124;-76
2023/08/03 02:24:46;;;;;;;5.90;2.38;;;;;;;;;;5092182;28;20107;-76
2023/08/03 02:27:12;;;;;;;5.25;2.42;;;;;;;;;;5101045;28;20403;-77
2023/08/03 02:29:37;;;;;;;6.20;2.60;;;;;;;;;;5092007;28;20016;-77
2023/08/03 02:32:03;;;;;;;5.40;2.63;;;;;;;;;;5083458;28;20028;-76
2023/08/03 02:34:28;;;;;;;5.82;3.45;;;;;;;;;;5090713;28;20024;-76
2023/08/03 02:36:53;;;;;;;6.45;3.67;;;;;;;;;;5083912;28;20021;-76
2023/08/03 02:39:19;;;;;;;7.22;4.05;;;;;;;;;;5086823;28;20043;-77
2023/08/03 02:41:44;;;;;;;7.93;5.05;;;;;;;;;;5092428;28;20108;-77
2023/08/03 02:44:10;;;;;;;8.07;5.00;;;;;;;;;;5095265;28;20494;-75
2023/08/03 02:46:35;;;;;;;10.07;4.82;;;;;;;;;;5092568;28;20031;-75
2023/08/03 02:49:00;;;;;;;7.60;5.13;;;;;;;;;;5097646;28;20036;-77
2023/08/03 02:51:26;;;;;;;7.60;5.10;;;;;;;;;;5091551;28;20031;-77
2023/08/03 02:53:51;;;;;;;7.13;4.97;;;;;;;;;;5091648;28;20046;-77
2023/08/03 02:56:17;;;;;;;7.85;4.30;;;;;;;;;;5091818;28;20369;-78
2023/08/03 02:58:42;;;;;;;8.73;4.38;;;;;;;;;;5093174;28;20028;-77
2023/08/03 03:01:07;;;;;;;9.35;3.92;;;;;;;;;;5091602;28;20119;-77
2023/08/03 03:03:35;;;;;;;10.18;3.78;;;;;;;;;;5092222;28;20024;-77
2023/08/03 03:06:01;;;;;;;10.18;3.67;;;;;;;;;;5095332;28;20046;-76
2023/08/03 03:08:26;;;;;;;5.38;3.33;;;;;;;;;;5088681;28;20023;-78
2023/08/03 03:10:52;;;;;;;10.13;3.75;;;;;;;;;;5087381;28;20027;-77
2023/08/03 03:13:17;;;;;;;4.93;3.35;;;;;;;;;;5086068;28;20028;-77
2023/08/03 03:15:42;;;;;;;5.38;3.20;;;;;;;;;;5087905;28;20088;-77
2023/08/03 03:18:08;;;;;;;6.60;2.83;;;;;;;;;;5089837;28;20097;-77
2023/08/03 03:20:33;;;;;;;5.50;3.50;;;;;;;;;;5092879;28;20074;-76
2023/08/03 03:22:59;;;;;;;5.40;3.17;;;;;;;;;;5084766;28;20024;-77
2023/08/03 03:25:24;;;;;;;5.57;2.72;;;;;;;;;;5094264;28;20069;-78
2023/08/03 03:27:49;;;;;;;4.70;2.67;;;;;;;;;;5093546;28;20024;-77
2023/08/03 03:30:16;;;;;;;7.35;3.22;;;;;;;;;;5092843;28;20020;-77
2023/08/03 03:32:42;;;;;;;6.18;3.22;;;;;;;;;;5084424;28;20764;-77
2023/08/03 03:35:08;;;;;;;7.47;3.60;;;;;;;;;;5083762;28;20107;-76
2023/08/03 03:37:33;;;;;;;6.85;4.20;;;;;;;;;;5089813;28;20012;-76
2023/08/03 03:39:59;;;;;;;8.93;3.45;;;;;;;;;;5092086;28;20044;-77
2023/08/03 03:42:24;;;;;;;8.27;3.58;;;;;;;;;;5095060;28;20024;-76
2023/08/03 03:44:49;;;;;;;8.40;3.40;;;;;;;;;;5094481;28;20098;-76
2023/08/03 03:47:15;;;;;;;8.05;3.53;;;;;;;;;;5091986;28;20059;-76
2023/08/03 03:49:40;;;;;;;5.22;3.10;;;;;;;;;;5092001;28;20032;-77
2023/08/03 03:52:06;;;;;;;6.55;3.28;;;;;;;;;;5095128;28;20043;-76
2023/08/03 03:54:31;;;;;;;6.00;3.08;;;;;;;;;;5097159;28;20069;-77
2023/08/03 03:56:58;;;;;;;8.48;3.20;;;;;;;;;;5093184;28;20032;-78
2023/08/03 03:59:23;;;;;;;5.00;3.00;;;;;;;;;;5096155;28;20157;-78
2023/08/03 04:01:48;;;;;;;7.70;2.58;;;;;;;;;;5103066;28;20107;-78
2023/08/03 04:04:14;;;;;;;4.72;2.60;;;;;;;;;;5094573;28;20084;-77
2023/08/03 04:06:39;;;;;;;5.95;2.08;;;;;;;;;;5099111;28;20042;-78
2023/08/03 04:09:05;;;;;;;7.15;2.45;;;;;;;;;;5097478;28;20387;-78
2023/08/03 04:11:30;;;;;;;4.57;2.05;;;;;;;;;;5100039;28;20027;-78
2023/08/03 04:13:55;;;;;;;5.05;2.10;;;;;;;;;;5096183;28;20027;-77
2023/08/03 04:16:21;;;;;;;4.05;1.63;;;;;;;;;;5101940;28;20024;-78
2023/08/03 04:18:46;;;;;;;6.50;1.88;;;;;;;;;;5096037;28;20429;-78
2023/08/03 04:21:12;;;;;;;5.35;1.50;;;;;;;;;;5084042;28;20034;-78
2023/08/03 04:23:37;;;;;;;3.47;1.67;;;;;;;;;;5092007;28;20463;-78
2023/08/03 04:26:02;;;;;;;4.72;1.40;;;;;;;;;;5102057;28;20055;-79
2023/08/03 04:28:28;;;;;;;8.30;1.40;;;;;;;;;;5093404;28;20016;-78
2023/08/03 04:30:53;;;;;;;4.75;1.40;;;;;;;;;;5094392;28;20108;-79
2023/08/03 04:33:19;;;;;;;5.57;1.40;;;;;;;;;;5089032;28;20024;-78
2023/08/03 04:35:44;;;;;;;8.38;1.58;;;;;;;;;;5104304;28;20032;-78
2023/08/03 04:38:09;;;;;;;3.53;1.10;;;;;;;;;;5093995;28;20027;-78
2023/08/03 04:40:35;;;;;;;4.75;1.38;;;;;;;;;;5094170;28;20031;-78
2023/08/03 04:43:01;;;;;;;6.50;1.30;;;;;;;;;;5093553;28;20016;-78
2023/08/03 04:45:26;;;;;;;5.38;1.33;;;;;;;;;;5093677;28;20069;-78
2023/08/03 04:47:52;;;;;;;6.75;1.27;;;;;;;;;;5093780;28;20375;-78
2023/08/03 04:50:19;;;;;;;3.13;0.90;;;;;;;;;;5081889;28;20016;-78
2023/08/03 04:52:44;;;;;;;5.88;1.35;;;;;;;;;;5095817;28;20059;-78
2023/08/03 04:55:10;;;;;;;5.00;1.23;;;;;;;;;;5099024;28;20048;-78
2023/08/03 04:57:35;;;;;;;4.68;1.23;;;;;;;;;;5099645;28;20065;-78
2023/08/03 05:00:00;;;;;;;7.03;1.05;;;;;;;;;;5091670;28;20051;-77
2023/08/03 05:02:26;;;;;;;5.63;1.13;;;;;;;;;;5095480;28;20024;-78
2023/08/03 05:04:51;;;;;;;5.55;1.30;;;;;;;;;;5093958;28;20024;-76
2023/08/03 05:07:17;;;;;;;6.07;1.10;;;;;;;;;;5079296;28;20125;-76
2023/08/03 05:09:42;;;;;;;4.25;1.20;;;;;;;;;;5099553;28;20023;-76
2023/08/03 05:12:07;;;;;;;5.22;1.00;;;;;;;;;;5081720;28;20024;-76
2023/08/03 05:14:33;;;;;;;6.35;0.90;;;;;;;;;;5084709;28;20024;-76
2023/08/03 05:16:58;;;;;;;3.83;1.25;;;;;;;;;;5067419;28;20507;-76
2023/08/03 05:19:24;;;;;;;5.32;1.10;;;;;;;;;;5091968;28;20487;-76
2023/08/03 05:21:49;;;;;;;4.63;1.20;;;;;;;;;;5093109;28;20028;-77
2023/08/03 05:24:14;;;;;;;5.50;1.23;;;;;;;;;;5097120;28;20024;-76
2023/08/03 05:26:40;;;;;;;4.03;1.17;;;;;;;;;;5096796;28;20027;-77
2023/08/03 05:29:05;;;;;;;4.82;1.10;;;;;;;;;;5094097;28;20024;-77
2023/08/03 05:31:31;;;;;;;3.70;1.00;;;;;;;;;;5088653;28;20059;-76
2023/08/03 05:33:56;;;;;;;2.33;0.80;;;;;;;;;;5083060;28;20020;-77
2023/08/03 05:36:23;;;;;;;5.57;1.00;;;;;;;;;;5088634;28;20111;-77
2023/08/03 05:38:52;;;;;;;3.72;1.10;;;;;;;;;;5094516;28;20024;-76
2023/08/03 05:41:21;;;;;;;7.03;1.05;;;;;;;;;;5092877;28;20024;-76
2023/08/03 05:43:47;;;;;;;4.20;1.30;;;;;;;;;;5093678;28;20024;-76
2023/08/03 05:46:13;;;;;;;4.80;1.30;;;;;;;;;;5087936;28;20112;-76
2023/08/03 05:48:40;;;;;;;9.45;1.58;;;;;;;;;;5077835;28;20021;-78
2023/08/03 05:51:05;;;;;;;4.38;1.13;;;;;;;;;;5088152;28;20510;-78
2023/08/03 05:53:32;;;;;;;7.55;1.30;;;;;;;;;;5092532;28;20051;-77
2023/08/03 05:55:58;;;;;;;5.35;1.10;;;;;;;;;;5092720;28;20072;-76
2023/08/03 05:58:23;;;;;;;7.15;1.48;;;;;;;;;;5091864;28;20020;-76
2023/08/03 06:00:50;;;;;;;7.07;1.35;;;;;;;;;;5093430;28;20069;-76
2023/08/03 06:03:18;;;;;;;10.07;1.30;;;;;;;;;;5099923;28;20024;-76
2023/08/03 06:05:48;;;;;;;7.63;1.40;;;;;;;;;;5083559;28;20024;-76
2023/08/03 06:08:25;;;;;;;6.55;1.38;;;;;;;;;;5092649;28;20521;-76
2023/08/03 06:10:55;;;;;;;6.75;1.10;;;;;;;;;;5089587;28;20024;-76
2023/08/03 06:13:29;;;;;;;8.18;1.35;;;;;;;;;;5092528;28;20016;-84
2023/08/03 06:15:55;;;;;;;4.45;1.17;;;;;;;;;;5092183;28;20028;-85
2023/08/03 06:18:21;;;;;;;8.80;1.70;;;;;;;;;;5076143;28;20468;-83
2023/08/03 06:20:51;;;;;;;9.43;1.40;;;;;;;;;;5086881;28;20060;-84
2023/08/03 06:23:22;;;;;;;5.38;1.38;;;;;;;;;;5092159;28;20019;-85
2023/08/03 06:25:50;;;;;;;5.45;1.55;;;;;;;;;;5092147;28;20012;-84
2023/08/03 06:28:20;;;;;;;3.33;1.30;;;;;;;;;;5090317;28;20024;-85
2023/08/03 06:30:47;;;;;;;6.88;1.75;;;;;;;;;;5093630;28;20016;-85
2023/08/03 06:33:14;;;;;;;5.50;1.27;;;;;;;;;;5085891;28;20032;-85
2023/08/03 06:35:42;;;;;;;6.20;1.08;;;;;;;;;;5091934;28;20539;-85
2023/08/03 06:38:09;;;;;;;6.53;1.33;;;;;;;;;;5094363;28;20042;-84
2023/08/03 06:40:35;;;;;;;7.20;1.27;;;;;;;;;;5097091;28;20055;-84
2023/08/03 06:43:02;;;;;;;6.20;1.40;;;;;;;;;;5091052;28;20020;-85
2023/08/03 06:45:31;;;;;;;5.57;1.13;;;;;;;;;;5072932;28;20016;-85
2023/08/03 06:47:57;;;;;;;8.40;1.65;;;;;;;;;;5090534;28;20027;-84
2023/08/03 06:50:22;;;;;;;5.40;0.90;;;;;;;;;;5091083;28;20090;-85
2023/08/03 06:52:48;;;;;;;6.25;1.30;;;;;;;;;;5084515;28;20488;-85
2023/08/03 06:55:13;;;;;;;5.18;0.98;;;;;;;;;;5087766;28;20035;-85
2023/08/03 06:57:39;;;;;;;5.25;1.80;;;;;;;;;;5090046;28;20043;-83
2023/08/03 07:00:05;;;;;;;7.32;1.45;;;;;;;;;;5078250;28;20020;-85
2023/08/03 07:02:30;;;;;;;5.25;1.38;;;;;;;;;;5084911;28;20373;-85
2023/08/03 07:04:56;;;;;;;5.60;1.00;;;;;;;;;;5092791;28;20049;-84
2023/08/03 07:07:21;;;;;;;8.48;1.05;;;;;;;;;;5086282;28;20027;-85
2023/08/03 07:09:50;;;;;;;3.42;1.00;;;;;;;;;;5091844;28;20024;-84
2023/08/03 07:12:15;;;;;;;9.13;1.20;;;;;;;;;;5091549;28;20023;-84
2023/08/03 07:14:41;;;;;;;4.30;1.00;;;;;;;;;;5091499;28;20020;-84
2023/08/03 07:17:07;;;;;;;4.63;1.02;;;;;;;;;;5082052;28;20027;-86
2023/08/03 07:19:32;;;;;;;2.88;0.70;;;;;;;;;;5086336;28;20035;-86
2023/08/03 07:21:58;;;;;;;3.67;0.80;;;;;;;;;;5090431;28;20441;-84
2023/08/03 07:24:24;;;;;;;4.85;1.00;;;;;;;;;;5084578;28;20032;-77
2023/08/03 07:26:49;;;;;;;3.22;0.93;;;;;;;;;;5093240;28;20488;-76
2023/08/03 07:29:15;;;;;;;6.90;1.00;;;;;;;;;;5076521;28;20486;-76
2023/08/03 07:31:41;;;;;;;6.07;1.17;;;;;;;;;;5087299;28;20024;-76
2023/08/03 07:34:06;;;;;;;4.90;1.30;;;;;;;;;;5081297;28;20032;-77
2023/08/03 07:36:32;;;;;;;4.15;1.00;;;;;;;;;;5090926;28;20368;-76
2023/08/03 07:38:57;;;;;;;3.33;1.00;;;;;;;;;;5092959;28;20077;-77
2023/08/03 07:41:23;;;;;;;3.90;1.15;;;;;;;;;;5088918;28;20546;-76
2023/08/03 07:43:50;;;;;;;6.72;1.25;;;;;;;;;;5085995;28;20020;-77
2023/08/03 07:46:15;;;;;;;5.80;1.30;;;;;;;;;;5089901;28;20016;-76
2023/08/03 07:48:41;;;;;;;2.95;1.05;;;;;;;;;;5090898;28;20028;-76
2023/08/03 07:51:14;;;;;;;6.03;1.20;;;;;;;;;;5090910;28;20031;-76
2023/08/03 07:53:39;;;;;;;5.07;1.20;;;;;;;;;;5083871;28;20434;-76
2023/08/03 07:56:13;;;;;;;6.50;1.35;;;;;;;;;;5091413;28;20028;-76
2023/08/03 07:58:39;;;;;;;5.13;1.02;;;;;;;;;;5086786;28;20074;-77
2023/08/03 08:01:05;;;;;;;7.32;1.80;;;;;;;;;;5091029;28;20028;-77
2023/08/03 08:03:30;;;;;;;5.28;1.33;;;;;;;;;;5090287;28;20031;-76
2023/08/03 08:06:07;;;;;;;5.18;1.30;;;;;;;;;;5091088;28;20020;-76
2023/08/03 08:08:33;;;;;;;8.90;1.50;;;;;;;;;;5091734;28;20034;-76
2023/08/03 08:10:58;;;;;;;6.95;1.65;;;;;;;;;;5090437;28;20028;-76
2023/08/03 08:13:24;;;;;;;7.75;1.67;;;;;;;;;;5090110;28;20024;-76
2023/08/03 08:15:49;;;;;;;6.18;1.42;;;;;;;;;;5089704;28;20028;-76
2023/08/03 08:18:14;;;;;;;5.97;1.58;;;;;;;;;;5071126;28;20503;-77
2023/08/03 08:20:40;;;;;;;6.70;1.70;;;;;;;;;;5088173;28;20024;-76
2023/08/03 08:23:05;;;;;;;13.00;2.20;;;;;;;;;;5094648;28;20024;-77
2023/08/03 08:25:37;;;;;;;6.90;1.83;;;;;;;;;;5094215;28;20095;-77
2023/08/03 08:28:02;;;;;;;8.15;1.77;;;;;;;;;;5093857;28;20023;-76
2023/08/03 08:30:28;;;;;;;9.00;1.95;;;;;;;;;;5092156;28;20040;-76
2023/08/03 08:32:53;;;;;;;8.30;1.83;;;;;;;;;;5095583;28;20085;-76
2023/08/03 08:35:19;;;;;;;6.03;2.22;;;;;;;;;;5091434;28;20116;-82
2023/08/03 08:37:44;;;;;;;6.88;2.05;;;;;;;;;;5096362;28;20035;-86
2023/08/03 08:40:13;;;;;;;7.75;2.15;;;;;;;;;;5094344;28;20035;-86
2023/08/03 08:42:38;;;;;;;8.45;2.10;;;;;;;;;;5090639;28;20039;-86
2023/08/03 08:45:05;;;;;;;7.53;2.05;;;;;;;;;;5094099;28;20020;-85
2023/08/03 08:47:31;;;;;;;6.28;1.85;;;;;;;;;;5092774;28;20165;-86
2023/08/03 08:49:56;;;;;;;7.63;1.80;;;;;;;;;;5094128;28;20111;-86
2023/08/03 08:52:23;;;;;;;6.80;1.90;;;;;;;;;;5095171;28;20121;-86
2023/08/03 08:54:49;;;;;;;9.73;2.10;;;;;;;;;;5093603;28;20138;-83
2023/08/03 08:57:15;;;;;;;7.75;2.67;;;;;;;;;;5096307;28;20111;-86
2023/08/03 08:59:56;;;;;;;8.90;2.42;;;;;;;;;;5085972;28;20506;-86
2023/08/03 09:02:25;;;;;;;7.05;2.25;;;;;;;;;;5097215;28;20120;-83
2023/08/03 09:04:50;;;;;;;7.00;1.95;;;;;;;;;;5083208;28;20149;-81
2023/08/03 09:07:17;;;;;;;5.90;2.03;;;;;;;;;;5088257;28;20103;-85
2023/08/03 09:09:42;;;;;;;9.23;2.08;;;;;;;;;;5087925;28;20024;-86
2023/08/03 09:12:08;;;;;;;7.05;2.08;;;;;;;;;;5087206;28;20037;-85
2023/08/03 09:14:48;;;;;;;5.65;1.83;;;;;;;;;;5093690;28;20020;-85
2023/08/03 09:17:22;;;;;;;7.55;1.98;;;;;;;;;;5087063;28;20119;-86
2023/08/03 09:19:48;;;;;;;8.02;2.25;;;;;;;;;;5084785;28;20024;-85
2023/08/03 09:22:13;;;;;;;4.68;1.83;;;;;;;;;;5090646;28;20028;-85
2023/08/03 09:24:38;;;;;;;7.45;1.90;;;;;;;;;;5094682;28;20114;-86
2023/08/03 09:27:04;;;;;;;6.60;2.35;;;;;;;;;;5100044;28;20024;-84
2023/08/03 09:29:33;;;;;;;4.97;2.00;;;;;;;;;;5090668;28;20020;-85
2023/08/03 09:32:04;;;;;;;6.80;2.08;;;;;;;;;;5092178;28;20487;-86
2023/08/03 09:34:42;;;;;;;7.95;2.63;;;;;;;;;;5090081;28;20020;-85
2023/08/03 09:37:08;;;;;;;7.80;2.10;;;;;;;;;;5079912;28;20016;-86
2023/08/03 09:39:34;;;;;;;5.32;2.08;;;;;;;;;;5089640;28;20027;-86
2023/08/03 09:42:05;;;;;;;9.88;2.42;;;;;;;;;;5083949;28;20062;-84
2023/08/03 09:44:34;;;;;;;7.40;2.20;;;;;;;;;;5090816;28;20046;-77
2023/08/03 09:47:03;;;;;;;4.88;2.50;;;;;;;;;;5086461;28;20383;-77
2023/08/03 09:49:30;;;;;;;4.75;2.35;;;;;;;;;;5092769;28;20356;-76
2023/08/03 09:51:57;;;;;;;5.40;2.20;;;;;;;;;;5093606;28;20056;-77
2023/08/03 09:54:40;;;;;;;7.47;2.65;;;;;;;;;;5092159;28;20016;-77
2023/08/03 09:57:09;;;;;;;6.97;2.45;;;;;;;;;;5088896;28;20043;-76
2023/08/03 09:59:36;;;;;;;5.90;2.50;;;;;;;;;;5088195;28;20055;-76
2023/08/03 10:02:05;;;;;;;3.88;2.10;;;;;;;;;;5096685;28;20217;-76
2023/08/03 10:04:34;;;;;;;5.07;2.20;;;;;;;;;;5093217;28;20513;-77
2023/08/03 10:07:05;;;;;;;7.93;2.08;;;;;;;;;;5093693;28;20012;-76
2023/08/03 10:09:37;;;;;;;4.95;2.03;;;;;;;;;;5092219;28;20058;-76
2023/08/03 10:12:08;;;;;;;5.43;2.30;;;;;;;;;;5086019;28;20020;-76
2023/08/03 10:14:39;;;;;;;5.40;2.15;;;;;;;;;;5092728;28;20028;-76
2023/08/03 10:17:07;;;;;;;6.55;2.35;;;;;;;;;;5092287;28;20379;-76
2023/08/03 10:19:33;;;;;;;8.07;2.45;;;;;;;;;;5092389;28;20216;-75
2023/08/03 10:21:59;;;;;;;8.65;2.50;;;;;;;;;;5092814;28;20519;-76
2023/08/03 10:24:24;;;;;;;6.72;2.65;;;;;;;;;;5108958;28;20027;-76
2023/08/03 10:26:54;;;;;;;7.72;2.65;;;;;;;;;;5091977;28;20020;-77
2023/08/03 10:29:51;;;;;;;7.45;2.70;;;;;;;;;;5080888;28;20077;-76
2023/08/03 10:32:25;;;;;;;6.93;2.55;;;;;;;;;;5085920;28;20023;-77
2023/08/03 10:34:52;;;;;;;6.63;2.13;;;;;;;;;;5090232;28;20023;-76
2023/08/03 10:37:19;;;;;;;8.07;2.33;;;;;;;;;;5088588;28;20022;-76
2023/08/03 10:39:53;;;;;;;7.38;2.95;;;;;;;;;;5088720;28;20037;-77
2023/08/03 10:42:20;;;;;;;6.47;2.63;;;;;;;;;;5090645;28;20020;-76
2023/08/03 10:44:46;;;;;;;9.57;2.65;;;;;;;;;;5089888;28;20109;-77
2023/08/03 10:47:23;;;;;;;7.57;2.47;;;;;;;;;;5092823;28;20052;-76
2023/08/03 10:49:50;;;;;;;8.15;2.30;;;;;;;;;;5092815;28;20028;-76
2023/08/03 10:52:20;;;;;;;8.10;2.70;;;;;;;;;;5091544;28;20079;-76
2023/08/03 10:54:46;;;;;;;5.43;2.13;;;;;;;;;;5088311;28;20027;-76
2023/08/03 10:57:22;;;;;;;7.38;2.40;;;;;;;;;;5101313;28;20463;-76
2023/08/03 10:59:53;;;;;;;8.82;3.10;;;;;;;;;;5090085;28;20028;-76
2023/08/03 11:02:30;;;;;;;5.90;2.40;;;;;;;;;;5087803;28;20024;-75
2023/08/03 11:04:56;;;;;;;9.65;3.35;;;;;;;;;;5082188;28;20035;-75
2023/08/03 11:07:28;;;;;;;6.97;2.55;;;;;;;;;;5091423;28;20111;-75
2023/08/03 11:09:54;;;;;;;7.88;2.90;;;;;;;;;;5089641;28;20024;-76
2023/08/03 11:12:22;;;;;;;9.77;3.00;;;;;;;;;;5085130;28;20082;-76
2023/08/03 11:14:50;;;;;;;5.53;2.95;;;;;;;;;;5089524;28;20059;-76
2023/08/03 11:17:16;;;;;;;5.78;1.60;;;;;;;;;;5090842;28;20020;-76
2023/08/03 11:19:43;;;;;;;3.35;1.00;;;;;;;;;;5091758;28;20098;-77
2023/08/03 11:22:10;;;;;;;2.42;0.70;;;;;;;;;;5091212;28;20024;-76
2023/08/03 11:24:36;;;;;;;1.13;0.80;;;;;;;;;;5095368;28;20027;-76
2023/08/03 11:27:03;;;;;;;1.55;0.80;;;;;;;;;;5098242;28;20035;-77
2023/08/03 11:29:30;;;;;;;1.92;0.80;;;;;;;;;;5091331;28;20467;-76
2023/08/03 11:31:55;;;;;;;3.92;1.00;;;;;;;;;;5090330;28;20036;-76
2023/08/03 11:34:23;;;;;;;3.03;0.90;;;;;;;;;;5089171;28;20020;-77
2023/08/03 11:36:50;;;;;;;2.25;1.05;;;;;;;;;;5089194;28;20042;-76
2023/08/03 11:39:18;;;;;;;4.28;1.08;;;;;;;;;;5091235;28;20043;-76
2023/08/03 11:41:44;;;;;;;2.80;1.20;;;;;;;;;;5097600;28;20024;-76
2023/08/03 11:44:09;;;;;;;3.53;1.20;;;;;;;;;;5091222;28;20020;-76
2023/08/03 11:46:35;;;;;;;3.15;1.00;;;;;;;;;;5070734;28;20086;-76
2023/08/03 11:49:03;;;;;;;3.03;1.10;;;;;;;;;;5085052;28;20078;-78
2023/08/03 11:51:30;;;;;;;1.88;1.20;;;;;;;;;;5086030;28;20024;-77
2023/08/03 11:53:55;;;;;;;3.00;1.02;;;;;;;;;;5087144;28;20055;-76
2023/08/03 11:56:21;;;;;;;4.05;1.25;;;;;;;;;;5087924;28;20059;-77
2023/08/03 11:58:46;;;;;;;4.13;1.42;;;;;;;;;;5086118;28;20380;-76
2023/08/03 12:01:12;;;;;;;4.68;1.48;;;;;;;;;;5095873;28;20463;-76
2023/08/03 12:03:38;;;;;;;3.30;1.17;;;;;;;;;;5095043;28;20361;-76
2023/08/03 12:06:10;;;;;;;4.80;1.42;;;;;;;;;;5087129;28;20024;-77
2023/08/03 12:08:42;;;;;;;;;;;;;;;;;;5086695;28;20024;-76
2023/08/03 12:11:08;;;;;;;4.05;1.83;;;;;;;;;;5099568;28;19954;-76
2023/08/03 12:13:33;;;;;;;6.03;2.10;;;;;;;;;;5096912;28;20464;-76
2023/08/03 12:15:59;;;;;;;6.35;1.88;;;;;;;;;;5107597;28;20111;-75
2023/08/03 12:18:25;;;;;;;6.00;1.35;;;;;;;;;;5100692;28;20077;-76
2023/08/03 12:20:51;;;;;;;3.92;1.30;;;;;;;;;;5094442;28;20024;-76
2023/08/03 12:23:17;;;;;;;5.38;1.27;;;;;;;;;;5094233;28;20020;-78
2023/08/03 12:25:43;;;;;;;4.40;1.10;;;;;;;;;;5092244;28;20081;-76
2023/08/03 12:28:08;;;;;;;6.22;1.20;;;;;;;;;;5085330;28;20058;-77
2023/08/03 12:30:33;;;;;;;3.85;1.20;;;;;;;;;;5095566;28;20050;-75
2023/08/03 12:32:59;;;;;;;3.45;1.30;;;;;;;;;;5094555;28;20494;-76
2023/08/03 12:35:24;;;;;;;5.07;1.48;;;;;;;;;;5094310;28;20028;-77
2023/08/03 12:37:50;;;;;;;3.47;1.40;;;;;;;;;;5095555;28;20027;-76
2023/08/03 12:40:16;;;;;;;7.15;1.67;;;;;;;;;;5092767;28;20046;-76
2023/08/03 12:42:41;;;;;;;4.53;1.60;;;;;;;;;;5095347;28;20024;-76
2023/08/03 12:45:07;;;;;;;6.22;1.98;;;;;;;;;;5094902;28;20085;-76
2023/08/03 12:47:32;;;;;;;5.43;1.60;;;;;;;;;;5094362;28;20464;-77
2023/08/03 12:49:58;;;;;;;8.90;2.00;;;;;;;;;;5093945;28;20023;-79
2023/08/03 12:52:25;;;;;;;6.32;2.00;;;;;;;;;;5093952;28;20039;-76
2023/08/03 12:54:51;;;;;;;6.55;1.83;;;;;;;;;;5093895;28;20047;-76
2023/08/03 12:57:17;;;;;;;7.93;2.20;;;;;;;;;;5100521;28;20375;-76
2023/08/03 12:59:42;;;;;;;5.63;1.67;;;;;;;;;;5084192;28;20055;-76
2023/08/03 13:02:07;;;;;;;10.75;2.10;;;;;;;;;;5113462;27;20032;-75
2023/08/03 13:04:33;;;;;;;8.45;2.05;;;;;;;;;;5088736;28;20055;-76
2023/08/03 13:06:58;;;;;;;5.35;2.28;;;;;;;;;;5100151;28;20105;-75
2023/08/03 13:09:24;;;;;;;7.05;2.08;;;;;;;;;;5101096;28;20103;-75
2023/08/03 13:11:49;;;;;;;5.90;2.38;;;;;;;;;;5097114;28;20388;-77
2023/08/03 13:14:14;;;;;;;6.55;2.25;;;;;;;;;;5097819;28;20040;-77
2023/08/03 13:16:40;;;;;;;9.23;2.50;;;;;;;;;;5097866;28;20506;-76
2023/08/03 13:19:05;;;;;;;6.57;2.28;;;;;;;;;;5095751;28;20096;-76
2023/08/03 13:21:31;;;;;;;8.18;2.05;;;;;;;;;;5088415;28;20102;-76
2023/08/03 13:23:56;;;;;;;7.53;2.28;;;;;;;;;;5092385;28;20046;-87
2023/08/03 13:26:21;;;;;;;9.38;2.38;;;;;;;;;;5093802;28;20081;-86
2023/08/03 13:28:50;;;;;;;6.75;2.42;;;;;;;;;;5082693;28;20029;-86
2023/08/03 13:31:17;;;;;;;9.10;2.40;;;;;;;;;;5109938;28;20089;-82
2023/08/03 13:33:42;;;;;;;7.57;2.40;;;;;;;;;;5083713;28;20379;-82
2023/08/03 13:36:07;;;;;;;8.02;2.50;;;;;;;;;;5089936;28;20024;-86
2023/08/03 13:38:33;;;;;;;8.60;2.10;;;;;;;;;;5084413;28;20036;-86
2023/08/03 13:41:00;;;;;;;7.20;2.40;;;;;;;;;;5088981;28;20024;-86
2023/08/03 13:43:26;;;;;;;6.13;2.10;;;;;;;;;;5084647;28;20054;-86
2023/08/03 13:45:51;;;;;;;5.05;1.92;;;;;;;;;;5089816;28;20024;-86
2023/08/03 13:48:17;;;;;;;10.52;2.28;;;;;;;;;;5077810;28;20051;-85
2023/08/03 13:50:42;;;;;;;7.70;2.00;;;;;;;;;;5093101;28;20020;-87
2023/08/03 13:53:08;;;;;;;10.32;2.83;;;;;;;;;;5092659;28;20031;-85
2023/08/03 13:55:33;;;;;;;7.80;2.30;;;;;;;;;;5092868;28;20034;-85
2023/08/03 13:57:59;;;;;;;9.15;2.20;;;;;;;;;;5087730;28;20103;-86
2023/08/03 14:00:25;;;;;;;10.52;2.60;;;;;;;;;;5086329;28;20020;-86
2023/08/03 14:02:50;;;;;;;8.90;2.60;;;;;;;;;;5093857;28;20035;-86
2023/08/03 14:05:16;;;;;;;9.45;2.28;;;;;;;;;;5093965;28;20081;-86
2023/08/03 14:07:41;;;;;;;9.77;2.60;;;;;;;;;;5084552;28;20035;-87
2023/08/03 14:10:08;;;;;;;11.10;2.38;;;;;;;;;;5082926;28;20024;-86
2023/08/03 14:12:35;;;;;;;10.82;2.28;;;;;;;;;;5091570;28;20073;-87
2023/08/03 14:15:01;;;;;;;7.70;2.10;;;;;;;;;;5092831;28;20020;-86
2023/08/03 14:17:28;;;;;;;10.60;2.35;;;;;;;;;;5092251;28;20016;-85
2023/08/03 14:19:54;;;;;;;7.03;2.33;;;;;;;;;;5092175;28;20028;-86
2023/08/03 14:22:19;;;;;;;6.07;2.05;;;;;;;;;;5091951;28;20491;-85
2023/08/03 14:24:45;;;;;;;7.80;2.20;;;;;;;;;;5092422;28;20024;-85
2023/08/03 14:27:10;;;;;;;9.43;2.10;;;;;;;;;;5089283;28;20016;-86
2023/08/03 14:29:36;;;;;;;10.13;2.33;;;;;;;;;;5088391;28;20038;-86
2023/08/03 14:32:02;;;;;;;9.23;2.17;;;;;;;;;;5092300;28;20024;-86
2023/08/03 14:34:28;;;;;;;11.75;2.38;;;;;;;;;;5092330;28;20024;-86
2023/08/03 14:36:53;;;;;;;10.15;2.13;;;;;;;;;;5090356;28;20031;-86
2023/08/03 14:39:19;;;;;;;9.23;2.10;;;;;;;;;;5088997;28;20026;-84